sensor_id;sensor_type;location;lat;lon;timestamp;temperature;humidity
56428;DHT22;42331;53.578;9.760;2022-10-16T00:00:03;13.60;99.90
56428;DHT22;42331;53.578;9.760;2022-10-16T00:02:34;13.50;99.90
56428;DHT22;42331;53.578;9.760;2022-10-16T00:05:05;13.50;99.90
56428;DHT22;42331;53.578;9.760;2022-10-16T00:07:35;13.50;99.90
56428;DHT22;42331;53.578;9.760;2022-10-16T00:10:06;13.50;99.90
56428;DHT22;42331;53.578;9.760;2022-10-16T00:12:37;13.50;99.90
56428;DHT22;42331;53.578;9.760;2022-10-16T00:15:08;13.50;99.90
56428;DHT22;42331;53.578;9.760;2022-10-16T00:17:39;13.60;99.90
56428;DHT22;42331;53.578;9.760;2022-10-16T00:20:10;13.60;99.90
56428;DHT22;42331;53.578;9.760;2022-10-16T00:22:41;13.50;99.90
56428;DHT22;42331;53.578;9.760;2022-10-16T00:25:11;13.60;99.90
56428;DHT22;42331;53.578;9.760;2022-10-16T00:27:42;13.60;99.90
56428;DHT22;42331;53.578;9.760;2022-10-16T00:30:13;13.60;99.90
56428;DHT22;42331;53.578;9.760;2022-10-16T00:32:43;13.60;99.90
56428;DHT22;42331;53.578;9.760;2022-10-16T00:35:14;13.50;99.90
56428;DHT22;42331;53.578;9.760;2022-10-16T00:37:45;13.50;99.90
56428;DHT22;42331;53.578;9.760;2022-10-16T00:40:16;13.50;99.90
56428;DHT22;42331;53.578;9.760;2022-10-16T00:42:46;13.60;99.90
56428;DHT22;42331;53.578;9.760;2022-10-16T00:45:19;13.60;99.90
56428;DHT22;42331;53.578;9.760;2022-10-16T00:47:51;13.50;99.90
56428;DHT22;42331;53.578;9.760;2022-10-16T00:50:33;13.50;99.90
56428;DHT22;42331;53.578;9.760;2022-10-16T00:53:04;13.50;99.90
56428;DHT22;42331;53.578;9.760;2022-10-16T00:55:36;13.40;99.90
56428;DHT22;42331;53.578;9.760;2022-10-16T00:58:07;13.40;99.90
56428;DHT22;42331;53.578;9.760;2022-10-16T01:00:37;13.40;99.90
56428;DHT22;42331;53.578;9.760;2022-10-16T01:03:32;13.30;99.90
56428;DHT22;42331;53.578;9.760;2022-10-16T01:06:19;13.40;99.90
56428;DHT22;42331;53.578;9.760;2022-10-16T01:12:06;13.30;99.90
56428;DHT22;42331;53.578;9.760;2022-10-16T01:17:58;13.30;99.90
56428;DHT22;42331;53.578;9.760;2022-10-16T01:20:59;13.20;99.90
56428;DHT22;42331;53.578;9.760;2022-10-16T01:26:43;13.10;99.90
56428;DHT22;42331;53.578;9.760;2022-10-16T01:32:17;13.10;99.90
56428;DHT22;42331;53.578;9.760;2022-10-16T01:34:58;13.10;99.90
56428;DHT22;42331;53.578;9.760;2022-10-16T01:37:40;13.00;99.90
56428;DHT22;42331;53.578;9.760;2022-10-16T01:40:16;13.00;99.90
56428;DHT22;42331;53.578;9.760;2022-10-16T01:43:09;13.00;99.90
56428;DHT22;42331;53.578;9.760;2022-10-16T01:45:41;13.00;99.90
56428;DHT22;42331;53.578;9.760;2022-10-16T01:48:17;12.90;99.90
56428;DHT22;42331;53.578;9.760;2022-10-16T01:50:55;13.00;99.90
56428;DHT22;42331;53.578;9.760;2022-10-16T01:53:27;12.90;99.90
56428;DHT22;42331;53.578;9.760;2022-10-16T01:55:59;12.80;99.90
56428;DHT22;42331;53.578;9.760;2022-10-16T01:58:34;12.80;99.90
56428;DHT22;42331;53.578;9.760;2022-10-16T02:01:07;12.80;99.90
56428;DHT22;42331;53.578;9.760;2022-10-16T02:03:41;12.80;99.90
56428;DHT22;42331;53.578;9.760;2022-10-16T02:06:15;12.80;99.90
56428;DHT22;42331;53.578;9.760;2022-10-16T02:08:46;12.80;99.90
56428;DHT22;42331;53.578;9.760;2022-10-16T02:11:17;12.90;99.90
56428;DHT22;42331;53.578;9.760;2022-10-16T02:14:05;12.90;99.90
56428;DHT22;42331;53.578;9.760;2022-10-16T02:16:40;12.80;99.90
56428;DHT22;42331;53.578;9.760;2022-10-16T02:19:15;12.80;99.90
56428;DHT22;42331;53.578;9.760;2022-10-16T02:22:00;12.70;99.90
56428;DHT22;42331;53.578;9.760;2022-10-16T02:24:33;12.70;99.90
56428;DHT22;42331;53.578;9.760;2022-10-16T02:29:42;12.60;99.90
56428;DHT22;42331;53.578;9.760;2022-10-16T02:32:19;12.60;99.90
56428;DHT22;42331;53.578;9.760;2022-10-16T02:34:53;12.60;99.90
56428;DHT22;42331;53.578;9.760;2022-10-16T02:37:25;12.60;99.90
56428;DHT22;42331;53.578;9.760;2022-10-16T02:39:57;12.60;99.90
56428;DHT22;42331;53.578;9.760;2022-10-16T02:42:33;12.60;99.90
56428;DHT22;42331;53.578;9.760;2022-10-16T02:45:09;12.50;99.90
56428;DHT22;42331;53.578;9.760;2022-10-16T02:47:40;12.50;99.90
56428;DHT22;42331;53.578;9.760;2022-10-16T02:52:58;12.50;99.90
56428;DHT22;42331;53.578;9.760;2022-10-16T02:55:29;12.50;99.90
56428;DHT22;42331;53.578;9.760;2022-10-16T02:58:00;12.50;99.90
56428;DHT22;42331;53.578;9.760;2022-10-16T03:00:31;12.50;99.90
56428;DHT22;42331;53.578;9.760;2022-10-16T03:03:01;12.50;99.90
56428;DHT22;42331;53.578;9.760;2022-10-16T03:05:32;12.50;99.90
56428;DHT22;42331;53.578;9.760;2022-10-16T03:08:03;12.40;99.90
56428;DHT22;42331;53.578;9.760;2022-10-16T03:10:34;12.40;99.90
56428;DHT22;42331;53.578;9.760;2022-10-16T03:13:05;12.40;99.90
56428;DHT22;42331;53.578;9.760;2022-10-16T03:15:36;12.30;99.90
56428;DHT22;42331;53.578;9.760;2022-10-16T03:18:07;12.30;99.90
56428;DHT22;42331;53.578;9.760;2022-10-16T03:20:38;12.30;99.90
56428;DHT22;42331;53.578;9.760;2022-10-16T03:23:09;12.20;99.90
56428;DHT22;42331;53.578;9.760;2022-10-16T03:25:41;12.20;99.90
56428;DHT22;42331;53.578;9.760;2022-10-16T03:28:12;12.20;99.90
56428;DHT22;42331;53.578;9.760;2022-10-16T03:30:44;12.20;99.90
56428;DHT22;42331;53.578;9.760;2022-10-16T03:33:15;12.20;99.90
56428;DHT22;42331;53.578;9.760;2022-10-16T03:35:51;12.20;99.90
56428;DHT22;42331;53.578;9.760;2022-10-16T03:38:26;12.20;99.90
56428;DHT22;42331;53.578;9.760;2022-10-16T03:40:57;12.20;99.90
56428;DHT22;42331;53.578;9.760;2022-10-16T03:43:27;12.20;99.90
56428;DHT22;42331;53.578;9.760;2022-10-16T03:45:58;12.20;99.90
56428;DHT22;42331;53.578;9.760;2022-10-16T03:48:29;12.20;99.90
56428;DHT22;42331;53.578;9.760;2022-10-16T03:51:02;12.20;99.90
56428;DHT22;42331;53.578;9.760;2022-10-16T03:53:33;12.10;99.90
56428;DHT22;42331;53.578;9.760;2022-10-16T03:56:04;12.10;99.90
56428;DHT22;42331;53.578;9.760;2022-10-16T03:58:34;12.10;99.90
56428;DHT22;42331;53.578;9.760;2022-10-16T04:01:05;12.10;99.90
56428;DHT22;42331;53.578;9.760;2022-10-16T04:03:36;12.10;99.90
56428;DHT22;42331;53.578;9.760;2022-10-16T04:06:07;12.10;99.90
56428;DHT22;42331;53.578;9.760;2022-10-16T04:08:39;12.10;99.90
56428;DHT22;42331;53.578;9.760;2022-10-16T04:11:12;12.10;99.90
56428;DHT22;42331;53.578;9.760;2022-10-16T04:13:43;12.10;99.90
56428;DHT22;42331;53.578;9.760;2022-10-16T04:16:14;12.10;99.90
56428;DHT22;42331;53.578;9.760;2022-10-16T04:18:45;12.10;99.90
56428;DHT22;42331;53.578;9.760;2022-10-16T04:21:15;12.10;99.90
56428;DHT22;42331;53.578;9.760;2022-10-16T04:23:46;12.10;99.90
56428;DHT22;42331;53.578;9.760;2022-10-16T04:26:17;12.10;99.90
56428;DHT22;42331;53.578;9.760;2022-10-16T04:28:47;12.10;99.90
56428;DHT22;42331;53.578;9.760;2022-10-16T04:31:18;12.00;99.90
56428;DHT22;42331;53.578;9.760;2022-10-16T04:33:49;12.00;99.90
56428;DHT22;42331;53.578;9.760;2022-10-16T04:36:20;12.00;99.90
56428;DHT22;42331;53.578;9.760;2022-10-16T04:38:50;12.00;99.90
56428;DHT22;42331;53.578;9.760;2022-10-16T04:41:21;12.00;99.90
56428;DHT22;42331;53.578;9.760;2022-10-16T04:43:52;12.10;99.90
56428;DHT22;42331;53.578;9.760;2022-10-16T04:46:23;12.00;99.90
56428;DHT22;42331;53.578;9.760;2022-10-16T04:48:53;12.10;99.90
56428;DHT22;42331;53.578;9.760;2022-10-16T04:51:24;12.00;99.90
56428;DHT22;42331;53.578;9.760;2022-10-16T04:53:56;12.00;99.90
56428;DHT22;42331;53.578;9.760;2022-10-16T04:56:26;12.00;99.90
56428;DHT22;42331;53.578;9.760;2022-10-16T04:58:57;12.00;99.90
56428;DHT22;42331;53.578;9.760;2022-10-16T05:01:28;12.00;99.90
56428;DHT22;42331;53.578;9.760;2022-10-16T05:03:59;12.00;99.90
56428;DHT22;42331;53.578;9.760;2022-10-16T05:06:29;12.00;99.90
56428;DHT22;42331;53.578;9.760;2022-10-16T05:09:00;12.00;99.90
56428;DHT22;42331;53.578;9.760;2022-10-16T05:11:31;12.00;99.90
56428;DHT22;42331;53.578;9.760;2022-10-16T05:14:02;12.00;99.90
56428;DHT22;42331;53.578;9.760;2022-10-16T05:16:33;11.90;99.90
56428;DHT22;42331;53.578;9.760;2022-10-16T05:19:04;11.90;99.90
56428;DHT22;42331;53.578;9.760;2022-10-16T05:21:35;11.90;99.90
56428;DHT22;42331;53.578;9.760;2022-10-16T05:24:06;11.90;99.90
56428;DHT22;42331;53.578;9.760;2022-10-16T05:26:36;11.90;99.90
56428;DHT22;42331;53.578;9.760;2022-10-16T05:29:07;11.90;99.90
56428;DHT22;42331;53.578;9.760;2022-10-16T05:31:38;11.90;99.90
56428;DHT22;42331;53.578;9.760;2022-10-16T05:34:09;11.90;99.90
56428;DHT22;42331;53.578;9.760;2022-10-16T05:36:39;11.90;99.90
56428;DHT22;42331;53.578;9.760;2022-10-16T05:39:11;11.90;99.90
56428;DHT22;42331;53.578;9.760;2022-10-16T05:41:42;11.90;99.90
56428;DHT22;42331;53.578;9.760;2022-10-16T05:44:13;11.90;99.90
56428;DHT22;42331;53.578;9.760;2022-10-16T05:46:46;12.00;99.90
56428;DHT22;42331;53.578;9.760;2022-10-16T05:49:17;12.00;99.90
56428;DHT22;42331;53.578;9.760;2022-10-16T05:51:48;12.00;99.90
56428;DHT22;42331;53.578;9.760;2022-10-16T05:54:18;12.00;99.90
56428;DHT22;42331;53.578;9.760;2022-10-16T05:56:49;12.00;99.90
56428;DHT22;42331;53.578;9.760;2022-10-16T05:59:20;12.00;99.90
56428;DHT22;42331;53.578;9.760;2022-10-16T06:01:51;12.00;99.90
56428;DHT22;42331;53.578;9.760;2022-10-16T06:04:23;12.00;99.90
56428;DHT22;42331;53.578;9.760;2022-10-16T06:06:53;12.10;99.90
56428;DHT22;42331;53.578;9.760;2022-10-16T06:09:24;12.10;99.90
56428;DHT22;42331;53.578;9.760;2022-10-16T06:11:55;12.10;99.90
56428;DHT22;42331;53.578;9.760;2022-10-16T06:14:26;12.10;99.90
56428;DHT22;42331;53.578;9.760;2022-10-16T06:16:56;12.10;99.90
56428;DHT22;42331;53.578;9.760;2022-10-16T06:19:27;12.10;99.90
56428;DHT22;42331;53.578;9.760;2022-10-16T06:21:58;12.10;99.90
56428;DHT22;42331;53.578;9.760;2022-10-16T06:24:29;12.10;99.90
56428;DHT22;42331;53.578;9.760;2022-10-16T06:26:59;12.10;99.90
56428;DHT22;42331;53.578;9.760;2022-10-16T06:29:30;12.10;99.90
56428;DHT22;42331;53.578;9.760;2022-10-16T06:32:01;12.00;99.90
56428;DHT22;42331;53.578;9.760;2022-10-16T06:34:32;12.00;99.90
56428;DHT22;42331;53.578;9.760;2022-10-16T06:37:03;12.10;99.90
56428;DHT22;42331;53.578;9.760;2022-10-16T06:39:33;12.10;99.90
56428;DHT22;42331;53.578;9.760;2022-10-16T06:42:04;12.10;99.90
56428;DHT22;42331;53.578;9.760;2022-10-16T06:44:35;12.10;99.90
56428;DHT22;42331;53.578;9.760;2022-10-16T06:47:05;12.20;99.90
56428;DHT22;42331;53.578;9.760;2022-10-16T06:49:36;12.20;99.90
56428;DHT22;42331;53.578;9.760;2022-10-16T06:52:07;12.30;99.90
56428;DHT22;42331;53.578;9.760;2022-10-16T06:54:38;12.40;99.90
56428;DHT22;42331;53.578;9.760;2022-10-16T06:57:09;12.50;99.90
56428;DHT22;42331;53.578;9.760;2022-10-16T06:59:40;12.50;99.90
56428;DHT22;42331;53.578;9.760;2022-10-16T07:02:11;12.60;99.90
56428;DHT22;42331;53.578;9.760;2022-10-16T07:04:42;12.70;99.90
56428;DHT22;42331;53.578;9.760;2022-10-16T07:07:12;12.70;99.90
56428;DHT22;42331;53.578;9.760;2022-10-16T07:09:43;12.80;99.90
56428;DHT22;42331;53.578;9.760;2022-10-16T07:12:14;12.80;99.90
56428;DHT22;42331;53.578;9.760;2022-10-16T07:14:45;12.90;99.90
56428;DHT22;42331;53.578;9.760;2022-10-16T07:17:16;12.90;99.90
56428;DHT22;42331;53.578;9.760;2022-10-16T07:19:47;12.90;99.90
56428;DHT22;42331;53.578;9.760;2022-10-16T07:22:17;13.00;99.90
56428;DHT22;42331;53.578;9.760;2022-10-16T07:24:48;13.00;99.90
56428;DHT22;42331;53.578;9.760;2022-10-16T07:27:19;13.00;99.90
56428;DHT22;42331;53.578;9.760;2022-10-16T07:29:52;13.10;99.90
56428;DHT22;42331;53.578;9.760;2022-10-16T07:32:23;13.30;99.90
56428;DHT22;42331;53.578;9.760;2022-10-16T07:34:56;13.40;99.90
56428;DHT22;42331;53.578;9.760;2022-10-16T07:37:26;13.60;99.90
56428;DHT22;42331;53.578;9.760;2022-10-16T07:39:57;13.60;99.90
56428;DHT22;42331;53.578;9.760;2022-10-16T07:42:28;13.70;99.90
56428;DHT22;42331;53.578;9.760;2022-10-16T07:44:59;13.80;99.90
56428;DHT22;42331;53.578;9.760;2022-10-16T07:47:30;13.80;99.90
56428;DHT22;42331;53.578;9.760;2022-10-16T07:50:00;13.80;99.90
56428;DHT22;42331;53.578;9.760;2022-10-16T07:52:31;13.90;99.90
56428;DHT22;42331;53.578;9.760;2022-10-16T07:55:02;13.80;99.90
56428;DHT22;42331;53.578;9.760;2022-10-16T07:57:33;13.80;99.90
56428;DHT22;42331;53.578;9.760;2022-10-16T08:00:04;13.70;99.90
56428;DHT22;42331;53.578;9.760;2022-10-16T08:02:35;13.60;99.90
56428;DHT22;42331;53.578;9.760;2022-10-16T08:05:07;13.70;99.90
56428;DHT22;42331;53.578;9.760;2022-10-16T08:07:38;13.60;99.90
56428;DHT22;42331;53.578;9.760;2022-10-16T08:10:16;13.60;99.90
56428;DHT22;42331;53.578;9.760;2022-10-16T08:12:47;13.70;99.90
56428;DHT22;42331;53.578;9.760;2022-10-16T08:15:19;13.70;99.90
56428;DHT22;42331;53.578;9.760;2022-10-16T08:18:01;13.80;99.90
56428;DHT22;42331;53.578;9.760;2022-10-16T08:20:33;14.00;99.90
56428;DHT22;42331;53.578;9.760;2022-10-16T08:23:04;14.20;99.90
56428;DHT22;42331;53.578;9.760;2022-10-16T08:25:36;14.30;99.90
56428;DHT22;42331;53.578;9.760;2022-10-16T08:28:08;14.40;99.90
56428;DHT22;42331;53.578;9.760;2022-10-16T08:30:39;14.60;99.90
56428;DHT22;42331;53.578;9.760;2022-10-16T08:33:10;14.70;99.90
56428;DHT22;42331;53.578;9.760;2022-10-16T08:35:41;14.80;99.90
56428;DHT22;42331;53.578;9.760;2022-10-16T08:38:12;14.80;99.90
56428;DHT22;42331;53.578;9.760;2022-10-16T08:40:43;14.90;99.90
56428;DHT22;42331;53.578;9.760;2022-10-16T08:43:23;14.90;99.90
56428;DHT22;42331;53.578;9.760;2022-10-16T08:46:41;14.90;99.90
56428;DHT22;42331;53.578;9.760;2022-10-16T08:49:12;15.00;99.90
56428;DHT22;42331;53.578;9.760;2022-10-16T08:51:46;15.30;99.90
56428;DHT22;42331;53.578;9.760;2022-10-16T08:54:32;15.30;99.90
56428;DHT22;42331;53.578;9.760;2022-10-16T08:57:17;15.50;99.90
56428;DHT22;42331;53.578;9.760;2022-10-16T08:59:50;15.40;99.90
56428;DHT22;42331;53.578;9.760;2022-10-16T09:02:32;15.40;99.90
56428;DHT22;42331;53.578;9.760;2022-10-16T09:16:13;16.30;99.90
56428;DHT22;42331;53.578;9.760;2022-10-16T09:18:59;16.30;99.90
56428;DHT22;42331;53.578;9.760;2022-10-16T09:21:35;16.30;99.90
56428;DHT22;42331;53.578;9.760;2022-10-16T09:24:18;16.30;99.90
56428;DHT22;42331;53.578;9.760;2022-10-16T09:26:49;16.30;99.90
56428;DHT22;42331;53.578;9.760;2022-10-16T09:29:21;16.20;99.90
56428;DHT22;42331;53.578;9.760;2022-10-16T09:31:55;16.10;99.90
56428;DHT22;42331;53.578;9.760;2022-10-16T09:34:33;16.20;99.90
56428;DHT22;42331;53.578;9.760;2022-10-16T09:37:09;16.30;99.90
56428;DHT22;42331;53.578;9.760;2022-10-16T09:39:47;16.60;99.90
56428;DHT22;42331;53.578;9.760;2022-10-16T09:42:30;16.90;99.90
56428;DHT22;42331;53.578;9.760;2022-10-16T09:45:03;17.00;99.90
56428;DHT22;42331;53.578;9.760;2022-10-16T09:47:43;17.20;99.90
56428;DHT22;42331;53.578;9.760;2022-10-16T09:50:34;17.50;99.90
56428;DHT22;42331;53.578;9.760;2022-10-16T09:53:15;17.80;99.90
56428;DHT22;42331;53.578;9.760;2022-10-16T09:55:50;17.90;99.90
56428;DHT22;42331;53.578;9.760;2022-10-16T09:58:22;18.10;99.90
56428;DHT22;42331;53.578;9.760;2022-10-16T10:00:54;18.40;99.90
56428;DHT22;42331;53.578;9.760;2022-10-16T10:03:40;18.90;99.90
56428;DHT22;42331;53.578;9.760;2022-10-16T10:08:56;20.50;99.90
56428;DHT22;42331;53.578;9.760;2022-10-16T10:12:00;20.80;99.90
56428;DHT22;42331;53.578;9.760;2022-10-16T10:14:36;21.30;99.90
56428;DHT22;42331;53.578;9.760;2022-10-16T10:19:51;21.30;99.90
56428;DHT22;42331;53.578;9.760;2022-10-16T10:22:42;20.60;99.90
56428;DHT22;42331;53.578;9.760;2022-10-16T10:25:21;20.70;99.90
56428;DHT22;42331;53.578;9.760;2022-10-16T10:42:47;18.80;99.90
56428;DHT22;42331;53.578;9.760;2022-10-16T10:45:35;19.40;99.90
56428;DHT22;42331;53.578;9.760;2022-10-16T10:59:41;20.60;99.90
56428;DHT22;42331;53.578;9.760;2022-10-16T11:08:08;18.50;99.90
56428;DHT22;42331;53.578;9.760;2022-10-16T11:10:57;18.10;99.90
56428;DHT22;42331;53.578;9.760;2022-10-16T11:13:39;18.00;99.90
56428;DHT22;42331;53.578;9.760;2022-10-16T11:16:35;17.80;99.90
56428;DHT22;42331;53.578;9.760;2022-10-16T11:22:37;17.50;99.90
56428;DHT22;42331;53.578;9.760;2022-10-16T11:27:56;17.50;99.90
56428;DHT22;42331;53.578;9.760;2022-10-16T11:30:31;17.40;99.90
56428;DHT22;42331;53.578;9.760;2022-10-16T11:41:50;17.10;99.90
56428;DHT22;42331;53.578;9.760;2022-10-16T11:50:38;17.10;99.90
56428;DHT22;42331;53.578;9.760;2022-10-16T11:53:23;17.00;99.90
56428;DHT22;42331;53.578;9.760;2022-10-16T11:55:54;17.00;99.90
56428;DHT22;42331;53.578;9.760;2022-10-16T11:58:44;17.00;99.90
56428;DHT22;42331;53.578;9.760;2022-10-16T12:01:33;17.10;99.90
56428;DHT22;42331;53.578;9.760;2022-10-16T12:09:31;17.30;99.90
56428;DHT22;42331;53.578;9.760;2022-10-16T12:12:03;17.30;99.90
56428;DHT22;42331;53.578;9.760;2022-10-16T12:14:35;17.40;99.90
56428;DHT22;42331;53.578;9.760;2022-10-16T12:17:27;17.30;99.90
56428;DHT22;42331;53.578;9.760;2022-10-16T12:22:55;17.30;99.90
56428;DHT22;42331;53.578;9.760;2022-10-16T12:25:33;17.10;99.90
56428;DHT22;42331;53.578;9.760;2022-10-16T12:28:06;17.00;99.90
56428;DHT22;42331;53.578;9.760;2022-10-16T12:30:37;17.00;99.90
56428;DHT22;42331;53.578;9.760;2022-10-16T12:33:31;16.90;99.90
56428;DHT22;42331;53.578;9.760;2022-10-16T12:36:27;16.80;99.90
56428;DHT22;42331;53.578;9.760;2022-10-16T12:38:59;16.80;99.90
56428;DHT22;42331;53.578;9.760;2022-10-16T12:41:35;16.80;99.90
56428;DHT22;42331;53.578;9.760;2022-10-16T12:44:33;16.80;99.90
56428;DHT22;42331;53.578;9.760;2022-10-16T12:47:18;16.80;99.90
56428;DHT22;42331;53.578;9.760;2022-10-16T12:49:52;16.80;99.90
56428;DHT22;42331;53.578;9.760;2022-10-16T12:52:37;16.90;99.90
56428;DHT22;42331;53.578;9.760;2022-10-16T12:55:16;17.00;99.90
56428;DHT22;42331;53.578;9.760;2022-10-16T13:00:45;17.30;99.90
56428;DHT22;42331;53.578;9.760;2022-10-16T13:26:16;17.10;99.90
56428;DHT22;42331;53.578;9.760;2022-10-16T13:28:21;17.10;99.90
56428;DHT22;42331;53.578;9.760;2022-10-16T13:30:54;17.00;99.90
56428;DHT22;42331;53.578;9.760;2022-10-16T13:33:31;16.90;99.90
56428;DHT22;42331;53.578;9.760;2022-10-16T13:36:03;17.00;99.90
56428;DHT22;42331;53.578;9.760;2022-10-16T13:38:35;16.90;99.90
56428;DHT22;42331;53.578;9.760;2022-10-16T13:41:15;17.00;99.90
56428;DHT22;42331;53.578;9.760;2022-10-16T13:43:49;16.90;99.90
56428;DHT22;42331;53.578;9.760;2022-10-16T13:46:22;16.90;99.90
56428;DHT22;42331;53.578;9.760;2022-10-16T13:49:05;16.90;99.90
56428;DHT22;42331;53.578;9.760;2022-10-16T13:51:36;16.90;99.90
56428;DHT22;42331;53.578;9.760;2022-10-16T13:54:09;16.90;99.90
56428;DHT22;42331;53.578;9.760;2022-10-16T13:56:41;16.80;99.90
56428;DHT22;42331;53.578;9.760;2022-10-16T13:59:35;16.80;99.90
56428;DHT22;42331;53.578;9.760;2022-10-16T14:04:46;16.70;99.90
56428;DHT22;42331;53.578;9.760;2022-10-16T14:07:29;16.70;99.90
56428;DHT22;42331;53.578;9.760;2022-10-16T14:10:03;16.70;99.90
56428;DHT22;42331;53.578;9.760;2022-10-16T14:12:35;16.80;99.90
56428;DHT22;42331;53.578;9.760;2022-10-16T14:15:17;16.80;99.90
56428;DHT22;42331;53.578;9.760;2022-10-16T14:17:51;16.90;99.90
56428;DHT22;42331;53.578;9.760;2022-10-16T14:20:26;16.90;99.90
56428;DHT22;42331;53.578;9.760;2022-10-16T14:23:03;16.90;99.90
56428;DHT22;42331;53.578;9.760;2022-10-16T14:25:34;16.80;99.90
56428;DHT22;42331;53.578;9.760;2022-10-16T14:28:16;16.70;99.90
56428;DHT22;42331;53.578;9.760;2022-10-16T14:30:56;16.70;99.90
56428;DHT22;42331;53.578;9.760;2022-10-16T14:38:42;16.60;99.90
56428;DHT22;42331;53.578;9.760;2022-10-16T14:41:13;16.60;99.90
56428;DHT22;42331;53.578;9.760;2022-10-16T14:43:49;16.60;99.90
56428;DHT22;42331;53.578;9.760;2022-10-16T14:46:33;16.60;99.90
56428;DHT22;42331;53.578;9.760;2022-10-16T14:49:25;16.50;99.90
56428;DHT22;42331;53.578;9.760;2022-10-16T14:51:57;16.40;99.90
56428;DHT22;42331;53.578;9.760;2022-10-16T14:54:28;16.30;99.90
56428;DHT22;42331;53.578;9.760;2022-10-16T14:56:59;16.30;99.90
56428;DHT22;42331;53.578;9.760;2022-10-16T14:59:36;16.30;99.90
56428;DHT22;42331;53.578;9.760;2022-10-16T15:04:50;16.20;99.90
56428;DHT22;42331;53.578;9.760;2022-10-16T15:07:21;16.20;99.90
56428;DHT22;42331;53.578;9.760;2022-10-16T15:09:52;16.10;99.90
56428;DHT22;42331;53.578;9.760;2022-10-16T15:12:24;16.10;99.90
56428;DHT22;42331;53.578;9.760;2022-10-16T15:14:54;16.00;99.90
56428;DHT22;42331;53.578;9.760;2022-10-16T15:17:25;16.00;99.90
56428;DHT22;42331;53.578;9.760;2022-10-16T15:19:56;16.00;99.90
56428;DHT22;42331;53.578;9.760;2022-10-16T15:22:28;15.90;99.90
56428;DHT22;42331;53.578;9.760;2022-10-16T15:24:59;15.90;99.90
56428;DHT22;42331;53.578;9.760;2022-10-16T15:27:30;15.80;99.90
56428;DHT22;42331;53.578;9.760;2022-10-16T15:30:00;15.70;99.90
56428;DHT22;42331;53.578;9.760;2022-10-16T15:32:31;15.60;99.90
56428;DHT22;42331;53.578;9.760;2022-10-16T15:35:02;15.60;99.90
56428;DHT22;42331;53.578;9.760;2022-10-16T15:37:33;15.50;99.90
56428;DHT22;42331;53.578;9.760;2022-10-16T15:40:04;15.40;99.90
56428;DHT22;42331;53.578;9.760;2022-10-16T15:42:35;15.40;99.90
56428;DHT22;42331;53.578;9.760;2022-10-16T15:45:06;15.30;99.90
56428;DHT22;42331;53.578;9.760;2022-10-16T15:47:37;15.20;99.90
56428;DHT22;42331;53.578;9.760;2022-10-16T15:50:10;15.10;99.90
56428;DHT22;42331;53.578;9.760;2022-10-16T15:52:42;15.00;99.90
56428;DHT22;42331;53.578;9.760;2022-10-16T15:55:13;15.00;99.90
56428;DHT22;42331;53.578;9.760;2022-10-16T15:57:46;14.90;99.90
56428;DHT22;42331;53.578;9.760;2022-10-16T16:00:18;14.90;99.90
56428;DHT22;42331;53.578;9.760;2022-10-16T16:02:53;14.70;99.90
56428;DHT22;42331;53.578;9.760;2022-10-16T16:05:24;14.70;99.90
56428;DHT22;42331;53.578;9.760;2022-10-16T16:07:55;14.50;99.90
56428;DHT22;42331;53.578;9.760;2022-10-16T16:10:27;14.30;99.90
56428;DHT22;42331;53.578;9.760;2022-10-16T16:12:57;14.20;99.90
56428;DHT22;42331;53.578;9.760;2022-10-16T16:15:29;14.00;99.90
56428;DHT22;42331;53.578;9.760;2022-10-16T16:18:00;13.90;99.90
56428;DHT22;42331;53.578;9.760;2022-10-16T16:20:32;13.80;99.90
56428;DHT22;42331;53.578;9.760;2022-10-16T16:23:03;13.70;99.90
56428;DHT22;42331;53.578;9.760;2022-10-16T16:25:34;13.60;99.90
56428;DHT22;42331;53.578;9.760;2022-10-16T16:28:04;13.50;99.90
56428;DHT22;42331;53.578;9.760;2022-10-16T16:30:37;13.40;99.90
56428;DHT22;42331;53.578;9.760;2022-10-16T16:33:08;13.30;99.90
56428;DHT22;42331;53.578;9.760;2022-10-16T16:35:38;13.20;99.90
56428;DHT22;42331;53.578;9.760;2022-10-16T16:38:09;13.10;99.90
56428;DHT22;42331;53.578;9.760;2022-10-16T16:40:40;13.10;99.90
56428;DHT22;42331;53.578;9.760;2022-10-16T16:43:11;13.00;99.90
56428;DHT22;42331;53.578;9.760;2022-10-16T16:45:41;13.00;99.90
56428;DHT22;42331;53.578;9.760;2022-10-16T16:48:12;12.90;99.90
56428;DHT22;42331;53.578;9.760;2022-10-16T16:50:43;12.80;99.90
56428;DHT22;42331;53.578;9.760;2022-10-16T16:53:13;12.70;99.90
56428;DHT22;42331;53.578;9.760;2022-10-16T16:55:44;12.70;99.90
56428;DHT22;42331;53.578;9.760;2022-10-16T16:58:18;12.60;99.90
56428;DHT22;42331;53.578;9.760;2022-10-16T17:00:49;12.60;99.90
56428;DHT22;42331;53.578;9.760;2022-10-16T17:03:20;12.50;99.90
56428;DHT22;42331;53.578;9.760;2022-10-16T17:06:03;12.50;99.90
56428;DHT22;42331;53.578;9.760;2022-10-16T17:08:37;12.40;99.90
56428;DHT22;42331;53.578;9.760;2022-10-16T17:11:15;12.40;99.90
56428;DHT22;42331;53.578;9.760;2022-10-16T17:13:50;12.40;99.90
56428;DHT22;42331;53.578;9.760;2022-10-16T17:16:36;12.30;99.90
56428;DHT22;42331;53.578;9.760;2022-10-16T17:19:07;12.30;99.90
56428;DHT22;42331;53.578;9.760;2022-10-16T17:21:39;12.30;99.90
56428;DHT22;42331;53.578;9.760;2022-10-16T17:24:09;12.20;99.90
56428;DHT22;42331;53.578;9.760;2022-10-16T17:26:40;12.20;99.90
56428;DHT22;42331;53.578;9.760;2022-10-16T17:29:14;12.10;99.90
56428;DHT22;42331;53.578;9.760;2022-10-16T17:31:45;12.10;99.90
56428;DHT22;42331;53.578;9.760;2022-10-16T17:34:19;12.00;99.90
56428;DHT22;42331;53.578;9.760;2022-10-16T17:36:49;12.00;99.90
56428;DHT22;42331;53.578;9.760;2022-10-16T17:39:20;12.00;99.90
56428;DHT22;42331;53.578;9.760;2022-10-16T17:41:52;11.90;99.90
56428;DHT22;42331;53.578;9.760;2022-10-16T17:44:28;11.90;99.90
56428;DHT22;42331;53.578;9.760;2022-10-16T17:46:59;11.80;99.90
56428;DHT22;42331;53.578;9.760;2022-10-16T17:49:36;11.80;99.90
56428;DHT22;42331;53.578;9.760;2022-10-16T17:52:07;11.70;99.90
56428;DHT22;42331;53.578;9.760;2022-10-16T17:54:37;11.70;99.90
56428;DHT22;42331;53.578;9.760;2022-10-16T17:57:09;11.70;99.90
56428;DHT22;42331;53.578;9.760;2022-10-16T17:59:40;11.60;99.90
56428;DHT22;42331;53.578;9.760;2022-10-16T18:02:11;11.60;99.90
56428;DHT22;42331;53.578;9.760;2022-10-16T18:04:42;11.60;99.90
56428;DHT22;42331;53.578;9.760;2022-10-16T18:07:12;11.60;99.90
56428;DHT22;42331;53.578;9.760;2022-10-16T18:09:43;11.60;99.90
56428;DHT22;42331;53.578;9.760;2022-10-16T18:12:14;11.40;99.90
56428;DHT22;42331;53.578;9.760;2022-10-16T18:14:45;11.40;99.90
56428;DHT22;42331;53.578;9.760;2022-10-16T18:17:15;11.40;99.90
56428;DHT22;42331;53.578;9.760;2022-10-16T18:19:49;11.30;99.90
56428;DHT22;42331;53.578;9.760;2022-10-16T18:22:20;11.40;99.90